createdAt,value
2022-09-07T00:00:36.481Z,18.17
2022-09-07T00:01:35.527Z,18.16
2022-09-07T00:02:35.540Z,18.16
2022-09-07T00:03:35.503Z,18.16
2022-09-07T00:04:35.482Z,18.14
2022-09-07T00:05:35.455Z,18.13
2022-09-07T00:06:35.509Z,18.13
2022-09-07T00:07:35.396Z,18.10
2022-09-07T00:08:35.399Z,18.11
2022-09-07T00:09:35.385Z,18.11
2022-09-07T00:10:35.369Z,18.10
2022-09-07T00:11:35.411Z,18.06
2022-09-07T00:12:35.355Z,18.08
2022-09-07T00:13:35.382Z,18.06
2022-09-07T00:14:35.346Z,18.05
2022-09-07T00:15:35.334Z,18.02
2022-09-07T00:16:35.381Z,18.03
2022-09-07T00:17:35.307Z,18.02
2022-09-07T00:18:35.257Z,18.02
2022-09-07T00:19:35.290Z,18.03
2022-09-07T00:20:35.262Z,18.02
2022-09-07T00:21:35.252Z,18.01
2022-09-07T00:22:35.250Z,18.01
2022-09-07T00:23:35.215Z,17.99
2022-09-07T00:24:35.197Z,17.99
2022-09-07T00:25:35.171Z,17.98
2022-09-07T00:26:35.200Z,17.98
2022-09-07T00:27:35.184Z,17.99
2022-09-07T00:28:35.140Z,17.96
2022-09-07T00:29:35.121Z,17.95
2022-09-07T00:30:35.121Z,17.94
2022-09-07T00:31:35.148Z,17.95
2022-09-07T00:32:35.109Z,17.94
2022-09-07T00:33:35.085Z,17.94
2022-09-07T00:34:35.087Z,17.94
2022-09-07T00:35:35.037Z,17.94
2022-09-07T00:36:35.045Z,17.94
2022-09-07T00:37:35.039Z,17.92
2022-09-07T00:38:35.013Z,17.92
2022-09-07T00:39:35.036Z,17.92
2022-09-07T00:40:35.060Z,17.90
2022-09-07T00:41:34.990Z,17.90
2022-09-07T00:42:34.967Z,17.90
2022-09-07T00:43:34.942Z,17.88
2022-09-07T00:44:34.927Z,17.88
2022-09-07T00:45:34.914Z,17.87
2022-09-07T00:46:34.959Z,17.87
2022-09-07T00:47:34.896Z,17.86
2022-09-07T00:48:34.913Z,17.84
2022-09-07T00:49:34.865Z,17.86
2022-09-07T00:50:34.845Z,17.86
2022-09-07T00:51:34.845Z,17.86
2022-09-07T00:52:34.871Z,17.86
2022-09-07T00:53:34.894Z,17.86
2022-09-07T00:54:34.802Z,17.86
2022-09-07T00:55:34.797Z,17.86
2022-09-07T00:56:34.793Z,17.84
2022-09-07T00:57:34.764Z,17.86
2022-09-07T00:58:34.762Z,17.84
2022-09-07T00:59:34.736Z,17.84
2022-09-07T01:00:34.724Z,17.83
2022-09-07T01:01:34.846Z,17.83
2022-09-07T01:02:34.809Z,17.81
2022-09-07T01:03:34.693Z,17.80
2022-09-07T01:04:34.765Z,17.80
2022-09-07T01:05:34.687Z,17.81
2022-09-07T01:06:34.852Z,17.80
2022-09-07T01:07:34.642Z,17.79
2022-09-07T01:08:34.690Z,17.79
2022-09-07T01:09:34.600Z,17.79
2022-09-07T01:10:34.618Z,17.80
2022-09-07T01:11:34.570Z,17.81
2022-09-07T01:12:35.568Z,17.79
2022-09-07T01:13:34.541Z,17.81
2022-09-07T01:14:34.609Z,17.79
2022-09-07T01:15:34.593Z,17.80
2022-09-07T01:16:34.534Z,17.79
2022-09-07T01:17:34.490Z,17.80
2022-09-07T01:18:34.515Z,17.80
2022-09-07T01:19:34.508Z,17.80
2022-09-07T01:20:34.471Z,17.81
2022-09-07T01:21:34.474Z,17.81
2022-09-07T01:22:34.460Z,17.81
2022-09-07T01:23:34.441Z,17.81
2022-09-07T01:24:34.499Z,17.83
2022-09-07T01:25:34.402Z,17.83
2022-09-07T01:26:34.395Z,17.80
2022-09-07T01:27:34.387Z,17.80
2022-09-07T01:28:34.356Z,17.81
2022-09-07T01:29:34.356Z,17.80
2022-09-07T01:30:34.357Z,17.81
2022-09-07T01:31:34.398Z,17.79
2022-09-07T01:32:34.298Z,17.81
2022-09-07T01:33:34.320Z,17.81
2022-09-07T01:34:34.274Z,17.80
2022-09-07T01:35:34.310Z,17.80
2022-09-07T01:36:34.244Z,17.80
2022-09-07T01:37:34.234Z,17.80
2022-09-07T01:38:34.275Z,17.80
2022-09-07T01:39:34.262Z,17.79
2022-09-07T01:40:34.202Z,17.79
2022-09-07T01:41:34.214Z,17.80
2022-09-07T01:42:34.223Z,17.80
2022-09-07T01:43:34.207Z,17.79
2022-09-07T01:44:34.200Z,17.81
2022-09-07T01:45:34.142Z,17.80
2022-09-07T01:46:34.214Z,17.81
2022-09-07T01:47:34.142Z,17.81
2022-09-07T01:48:34.120Z,17.81
2022-09-07T01:49:34.081Z,17.83
2022-09-07T01:50:34.071Z,17.84
2022-09-07T01:51:34.057Z,17.83
2022-09-07T01:52:34.062Z,17.84
2022-09-07T01:53:34.071Z,17.86
2022-09-07T01:54:34.031Z,17.86
2022-09-07T01:55:34.031Z,17.86
2022-09-07T01:56:34.018Z,17.86
2022-09-07T01:57:33.988Z,17.88
2022-09-07T01:58:33.979Z,17.88
2022-09-07T01:59:33.974Z,17.88
2022-09-07T02:00:33.981Z,17.90
2022-09-07T02:01:33.966Z,17.92
2022-09-07T02:02:33.982Z,17.94
2022-09-07T02:03:33.932Z,17.92
2022-09-07T02:04:33.900Z,17.92
2022-09-07T02:05:33.882Z,17.95
2022-09-07T02:06:33.867Z,17.96
2022-09-07T02:07:33.837Z,17.95
2022-09-07T02:08:33.837Z,17.96
2022-09-07T02:09:33.837Z,17.96
2022-09-07T02:10:33.857Z,17.98
2022-09-07T02:11:33.817Z,18.01
2022-09-07T02:12:33.767Z,18.01
2022-09-07T02:13:33.784Z,18.03
2022-09-07T02:14:33.748Z,18.05
2022-09-07T02:15:33.830Z,18.06
2022-09-07T02:16:33.737Z,18.08
2022-09-07T02:17:33.767Z,18.13
2022-09-07T02:18:33.741Z,18.14
2022-09-07T02:19:33.748Z,18.14
2022-09-07T02:20:33.694Z,18.17
2022-09-07T02:21:33.688Z,18.19
2022-09-07T02:22:33.651Z,18.19
2022-09-07T02:23:33.646Z,18.20
2022-09-07T02:24:33.624Z,18.20
2022-09-07T02:25:33.660Z,18.20
2022-09-07T02:26:33.595Z,18.21
2022-09-07T02:27:33.605Z,18.21
2022-09-07T02:28:33.572Z,18.21
2022-09-07T02:29:33.557Z,18.21
2022-09-07T02:30:33.551Z,18.21
2022-09-07T02:31:33.625Z,18.23
2022-09-07T02:32:33.523Z,18.21
2022-09-07T02:33:33.558Z,18.23
2022-09-07T02:34:33.490Z,18.21
2022-09-07T02:35:33.514Z,18.24
2022-09-07T02:36:33.473Z,18.24
2022-09-07T02:37:33.501Z,18.24
2022-09-07T02:38:33.510Z,18.24
2022-09-07T02:39:33.479Z,18.26
2022-09-07T02:40:33.410Z,18.26
2022-09-07T02:41:33.389Z,18.24
2022-09-07T02:42:33.381Z,18.24
2022-09-07T02:43:33.418Z,18.23
2022-09-07T02:44:33.362Z,18.26
2022-09-07T02:45:33.340Z,18.26
2022-09-07T02:46:33.454Z,18.26
2022-09-07T02:47:33.328Z,18.26
2022-09-07T02:48:33.297Z,18.29
2022-09-07T02:49:33.317Z,18.27
2022-09-07T02:50:33.268Z,18.26
2022-09-07T02:51:33.292Z,18.26
2022-09-07T02:52:33.272Z,18.27
2022-09-07T02:53:33.912Z,18.29
2022-09-07T02:54:33.228Z,18.27
2022-09-07T02:55:33.236Z,18.27
2022-09-07T02:56:33.189Z,18.27
2022-09-07T02:57:33.176Z,18.29
2022-09-07T02:58:33.176Z,18.29
2022-09-07T02:59:33.164Z,18.29
2022-09-07T03:00:33.161Z,18.27
2022-09-07T03:01:33.278Z,18.27
2022-09-07T03:02:33.162Z,18.26
2022-09-07T03:03:33.118Z,18.27
2022-09-07T03:04:33.134Z,18.26
2022-09-07T03:05:33.074Z,18.26
2022-09-07T03:06:33.068Z,18.27
2022-09-07T03:07:35.832Z,18.26
2022-09-07T03:08:33.034Z,18.26
2022-09-07T03:09:33.079Z,18.27
2022-09-07T03:10:33.020Z,18.27
2022-09-07T03:11:33.003Z,18.26
2022-09-07T03:12:33.213Z,18.27
2022-09-07T03:13:32.982Z,18.27
2022-09-07T03:14:32.972Z,18.26
2022-09-07T03:15:32.961Z,18.26
2022-09-07T03:16:32.992Z,18.24
2022-09-07T03:17:32.948Z,18.24
2022-09-07T03:18:33.024Z,18.24
2022-09-07T03:19:32.944Z,18.24
2022-09-07T03:20:33.061Z,18.24
2022-09-07T03:21:32.909Z,18.23
2022-09-07T03:22:33.554Z,18.23
2022-09-07T03:23:32.851Z,18.21
2022-09-07T03:24:32.832Z,18.23
2022-09-07T03:25:32.894Z,18.21
2022-09-07T03:26:32.818Z,18.21
2022-09-07T03:27:32.788Z,18.20
2022-09-07T03:28:32.778Z,18.20
2022-09-07T03:29:32.778Z,18.20
2022-09-07T03:30:32.809Z,18.19
2022-09-07T03:31:32.750Z,18.19
2022-09-07T03:32:32.759Z,18.16
2022-09-07T03:33:32.727Z,18.17
2022-09-07T03:34:32.762Z,18.19
2022-09-07T03:35:32.721Z,18.17
2022-09-07T03:36:32.699Z,18.16
2022-09-07T03:37:32.666Z,18.16
2022-09-07T03:38:32.868Z,18.14
2022-09-07T03:39:32.694Z,18.14
2022-09-07T03:40:32.659Z,18.14
2022-09-07T03:41:32.650Z,18.14
2022-09-07T03:42:32.595Z,18.14
2022-09-07T03:43:32.593Z,18.13
2022-09-07T03:44:32.593Z,18.11
2022-09-07T03:45:32.600Z,18.13
2022-09-07T03:46:32.617Z,18.10
2022-09-07T03:47:32.554Z,18.08
2022-09-07T03:48:32.682Z,18.05
2022-09-07T03:49:32.526Z,18.06
2022-09-07T03:50:32.544Z,18.05
2022-09-07T03:51:32.513Z,18.03
2022-09-07T03:52:32.477Z,18.05
2022-09-07T03:53:32.464Z,18.03
2022-09-07T03:54:33.621Z,18.02
2022-09-07T03:55:32.425Z,18.02
2022-09-07T03:56:32.434Z,18.02
2022-09-07T03:57:32.394Z,18.02
2022-09-07T03:58:32.497Z,18.02
2022-09-07T03:59:32.397Z,17.99
2022-09-07T04:00:32.381Z,17.99
2022-09-07T04:01:32.447Z,17.99
2022-09-07T04:02:32.372Z,17.98
2022-09-07T04:03:32.348Z,17.99
2022-09-07T04:04:32.377Z,17.96
2022-09-07T04:05:32.292Z,17.98
2022-09-07T04:06:32.311Z,17.96
2022-09-07T04:07:32.302Z,17.95
2022-09-07T04:08:32.432Z,17.94
2022-09-07T04:09:32.252Z,17.95
2022-09-07T04:10:32.229Z,17.94
2022-09-07T04:11:32.219Z,17.94
2022-09-07T04:12:32.216Z,17.92
2022-09-07T04:13:32.199Z,17.92
2022-09-07T04:14:32.231Z,17.90
2022-09-07T04:15:32.206Z,17.90
2022-09-07T04:16:32.162Z,17.88
2022-09-07T04:17:32.192Z,17.87
2022-09-07T04:18:32.251Z,17.87
2022-09-07T04:19:32.137Z,17.86
2022-09-07T04:20:32.127Z,17.84
2022-09-07T04:21:32.096Z,17.83
2022-09-07T04:22:32.102Z,17.81
2022-09-07T04:23:32.059Z,17.80
2022-09-07T04:24:32.046Z,17.79
2022-09-07T04:25:32.045Z,17.77
2022-09-07T04:26:32.031Z,17.77
2022-09-07T04:27:32.032Z,17.77
2022-09-07T04:28:32.137Z,17.77
2022-09-07T04:29:31.985Z,17.76
2022-09-07T04:30:32.038Z,17.73
2022-09-07T04:31:32.024Z,17.74
2022-09-07T04:32:31.975Z,17.74
2022-09-07T04:33:31.943Z,17.71
2022-09-07T04:34:31.934Z,17.73
2022-09-07T04:35:31.918Z,17.71
2022-09-07T04:36:31.934Z,17.71
2022-09-07T04:37:31.913Z,17.71
2022-09-07T04:38:32.055Z,17.71
2022-09-07T04:39:31.908Z,17.71
2022-09-07T04:40:31.823Z,17.71
2022-09-07T04:41:31.851Z,17.69
2022-09-07T04:42:31.812Z,17.69
2022-09-07T04:43:31.950Z,17.65
2022-09-07T04:44:31.783Z,17.66
2022-09-07T04:45:31.772Z,17.66
2022-09-07T04:46:31.792Z,17.66
2022-09-07T04:47:31.753Z,17.66
2022-09-07T04:48:31.949Z,17.63
2022-09-07T04:49:31.729Z,17.65
2022-09-07T04:50:31.772Z,17.65
2022-09-07T04:51:31.704Z,17.65
2022-09-07T04:52:31.691Z,17.63
2022-09-07T04:53:31.712Z,17.65
2022-09-07T04:54:31.671Z,17.63
2022-09-07T04:55:31.637Z,17.63
2022-09-07T04:56:31.630Z,17.63
2022-09-07T04:57:31.640Z,17.65
2022-09-07T04:58:31.852Z,17.65
2022-09-07T04:59:31.635Z,17.63
2022-09-07T05:00:31.569Z,17.63
2022-09-07T05:01:31.648Z,17.63
2022-09-07T05:02:31.636Z,17.62
2022-09-07T05:03:31.558Z,17.62
2022-09-07T05:04:31.541Z,17.60
2022-09-07T05:05:31.531Z,17.62
2022-09-07T05:06:31.485Z,17.58
2022-09-07T05:07:31.499Z,17.60
2022-09-07T05:08:31.581Z,17.57
2022-09-07T05:09:31.475Z,17.57
2022-09-07T05:10:31.446Z,17.54
2022-09-07T05:11:31.444Z,17.54
2022-09-07T05:12:31.406Z,17.52
2022-09-07T05:13:31.397Z,17.52
2022-09-07T05:14:31.397Z,17.52
2022-09-07T05:15:31.404Z,17.50
2022-09-07T05:16:31.470Z,17.49
2022-09-07T05:17:31.372Z,17.47
2022-09-07T05:18:31.476Z,17.46
2022-09-07T05:19:31.365Z,17.45
2022-09-07T05:20:31.311Z,17.45
2022-09-07T05:21:31.312Z,17.43
2022-09-07T05:22:31.284Z,17.43
2022-09-07T05:23:31.285Z,17.43
2022-09-07T05:24:31.266Z,17.40
2022-09-07T05:25:31.233Z,17.40
2022-09-07T05:26:31.241Z,17.40
2022-09-07T05:27:31.212Z,17.39
2022-09-07T05:28:31.555Z,17.38
2022-09-07T05:31:32.172Z,17.39
2022-09-07T05:32:31.157Z,17.36
2022-09-07T05:34:32.550Z,17.38
2022-09-07T05:35:31.130Z,17.36
2022-09-07T05:36:31.299Z,17.36
2022-09-07T05:37:31.079Z,17.36
2022-09-07T05:38:31.226Z,17.35
2022-09-07T05:39:31.152Z,17.36
2022-09-07T05:40:31.042Z,17.36
2022-09-07T05:41:31.029Z,17.36
2022-09-07T05:42:31.030Z,17.36
2022-09-07T05:43:31.027Z,17.36
2022-09-07T05:44:46.506Z,17.36
2022-09-07T05:45:32.055Z,17.36
2022-09-07T05:46:30.989Z,17.36
2022-09-07T05:47:30.938Z,17.38
2022-09-07T05:48:31.029Z,17.38
2022-09-07T05:49:30.926Z,17.38
2022-09-07T05:50:30.907Z,17.39
2022-09-07T05:51:30.930Z,17.39
2022-09-07T05:52:30.885Z,17.40
2022-09-07T05:53:30.856Z,17.40
2022-09-07T05:54:30.895Z,17.42
2022-09-07T05:55:30.939Z,17.42
2022-09-07T05:56:30.837Z,17.42
2022-09-07T05:57:30.832Z,17.43
2022-09-07T05:58:30.918Z,17.45
2022-09-07T05:59:30.790Z,17.45
2022-09-07T06:00:30.797Z,17.46
2022-09-07T06:01:30.756Z,17.45
2022-09-07T06:02:30.866Z,17.47
2022-09-07T06:03:30.758Z,17.47
2022-09-07T06:04:30.717Z,17.49
2022-09-07T06:05:30.722Z,17.50
2022-09-07T06:06:30.733Z,17.50
2022-09-07T06:07:30.702Z,17.52
2022-09-07T06:08:30.762Z,17.52
2022-09-07T06:09:30.894Z,17.54
2022-09-07T06:10:46.134Z,17.54
2022-09-07T06:11:31.651Z,17.54
2022-09-07T06:12:30.631Z,17.57
2022-09-07T06:13:30.663Z,17.57
2022-09-07T06:14:30.599Z,17.57
2022-09-07T06:15:30.612Z,17.58
2022-09-07T06:16:30.631Z,17.60
2022-09-07T06:17:30.565Z,17.62
2022-09-07T06:18:30.529Z,17.63
2022-09-07T06:19:30.531Z,17.63
2022-09-07T06:20:30.544Z,17.63
2022-09-07T06:21:30.490Z,17.65
2022-09-07T06:22:31.312Z,17.66
2022-09-07T06:23:30.701Z,17.66
2022-09-07T06:24:30.459Z,17.71
2022-09-07T06:25:30.449Z,17.71
2022-09-07T06:26:30.457Z,17.71
2022-09-07T06:27:30.409Z,17.73
2022-09-07T06:28:30.401Z,17.76
2022-09-07T06:29:30.402Z,17.77
2022-09-07T06:30:30.414Z,17.77
2022-09-07T06:31:30.752Z,17.79
2022-09-07T06:32:46.087Z,17.80
2022-09-07T06:33:31.348Z,17.83
2022-09-07T06:34:30.359Z,17.86
2022-09-07T06:35:30.324Z,17.86
2022-09-07T06:36:30.331Z,17.88
2022-09-07T06:37:30.286Z,17.88
2022-09-07T06:38:31.904Z,17.92
2022-09-07T06:39:30.314Z,17.92
2022-09-07T06:40:30.297Z,17.95
2022-09-07T06:42:31.216Z,17.98
2022-09-07T06:43:30.408Z,18.01
2022-09-07T06:44:30.206Z,18.02
2022-09-07T06:45:30.270Z,18.05
2022-09-07T06:47:31.157Z,18.08
2022-09-07T06:48:30.253Z,18.10
2022-09-07T06:49:30.151Z,18.11
2022-09-07T06:50:30.133Z,18.13
2022-09-07T06:51:30.094Z,18.16
2022-09-07T06:53:34.210Z,18.20
2022-09-07T06:55:31.065Z,18.23
2022-09-07T06:56:30.042Z,18.26
2022-09-07T06:57:30.030Z,18.27
2022-09-07T06:58:30.177Z,18.32
2022-09-07T06:59:30.004Z,18.34
2022-09-07T07:00:29.990Z,18.38
2022-09-07T07:01:30.021Z,18.39
2022-09-07T07:02:29.988Z,18.42
2022-09-07T07:03:30.017Z,18.45
2022-09-07T07:04:29.940Z,18.49
2022-09-07T07:05:29.913Z,18.53
2022-09-07T07:06:30.211Z,18.54
2022-09-07T07:07:29.934Z,18.56
2022-09-07T07:08:29.953Z,18.60
2022-09-07T07:09:29.860Z,18.61
2022-09-07T07:15:55.217Z,18.84
2022-09-07T07:19:05.171Z,19.02
2022-09-07T07:20:05.820Z,19.12
2022-09-07T07:21:05.110Z,19.16
2022-09-07T07:22:18.757Z,19.25
2022-09-07T07:23:06.070Z,19.32
2022-09-07T07:24:08.088Z,19.40
2022-09-07T07:25:05.038Z,19.47
2022-09-07T07:26:05.037Z,19.53
2022-09-07T07:27:05.025Z,19.60
2022-09-07T07:29:06.081Z,19.74
2022-09-07T07:30:04.977Z,19.79
2022-09-07T07:31:07.506Z,19.85
2022-09-07T07:32:04.954Z,19.90
2022-09-07T07:33:04.983Z,19.95
2022-09-07T07:34:05.010Z,20.00
2022-09-07T07:35:04.928Z,20.04
2022-09-07T07:36:04.919Z,20.07
2022-09-07T07:37:04.885Z,20.10
2022-09-07T07:39:05.983Z,20.20
2022-09-07T07:40:23.463Z,20.27
2022-09-07T07:42:06.334Z,20.35
2022-09-07T07:43:05.684Z,20.38
2022-09-07T07:44:04.825Z,20.44
2022-09-07T07:46:06.349Z,20.51
2022-09-07T07:47:04.833Z,20.57
2022-09-07T07:48:04.769Z,20.61
2022-09-07T07:49:04.757Z,20.64
2022-09-07T07:51:09.871Z,20.68
2022-09-07T07:54:05.704Z,20.76
2022-09-07T07:55:42.916Z,20.79
2022-09-07T07:56:05.642Z,20.83
2022-09-07T07:57:04.654Z,20.86
2022-09-07T07:58:04.612Z,20.91
2022-09-07T07:59:04.620Z,20.94
2022-09-07T08:00:04.655Z,21.00
2022-09-07T08:01:04.658Z,21.04
2022-09-07T08:02:05.508Z,21.09
2022-09-07T08:03:04.563Z,21.11
2022-09-07T08:04:04.563Z,21.12
2022-09-07T08:05:04.711Z,21.16
2022-09-07T08:06:04.512Z,21.19
2022-09-07T08:07:09.720Z,21.23
2022-09-07T08:08:05.506Z,21.28
2022-09-07T08:09:04.488Z,21.33
2022-09-07T08:10:04.488Z,21.36
2022-09-07T08:11:04.448Z,21.37
2022-09-07T08:12:04.489Z,21.45
2022-09-07T08:13:04.486Z,21.49
2022-09-07T08:14:04.491Z,21.52
2022-09-07T08:15:04.867Z,21.58
2022-09-07T08:16:04.508Z,21.61
2022-09-07T08:17:04.398Z,21.64
2022-09-07T08:18:04.467Z,21.67
2022-09-07T08:19:04.377Z,21.70
2022-09-07T08:20:04.530Z,21.70
2022-09-07T08:21:04.573Z,21.73
2022-09-07T08:22:04.308Z,21.74
2022-09-07T08:23:05.016Z,21.77
2022-09-07T08:24:04.286Z,21.77
2022-09-07T08:25:04.267Z,21.78
2022-09-07T08:26:04.253Z,21.80
2022-09-07T08:27:04.265Z,21.83
2022-09-07T08:28:04.259Z,21.86
2022-09-07T08:29:04.286Z,21.89
2022-09-07T08:30:04.248Z,21.92
2022-09-07T08:31:04.219Z,21.96
2022-09-07T08:32:04.178Z,21.97
2022-09-07T08:33:04.207Z,21.99
2022-09-07T08:34:04.168Z,22.00
2022-09-07T08:35:04.223Z,22.07
2022-09-07T08:36:04.126Z,22.07
2022-09-07T08:37:04.145Z,22.07
2022-09-07T08:38:04.094Z,22.08
2022-09-07T08:39:04.185Z,22.11
2022-09-07T08:40:04.171Z,22.12
2022-09-07T08:41:04.073Z,22.14
2022-09-07T08:42:04.074Z,22.15
2022-09-07T08:43:04.068Z,22.18
2022-09-07T08:44:04.022Z,22.22
2022-09-07T08:45:04.051Z,22.24
2022-09-07T08:46:04.021Z,22.26
2022-09-07T08:47:04.055Z,22.31
2022-09-07T08:48:07.769Z,22.33
2022-09-07T08:49:03.985Z,22.36
2022-09-07T08:50:04.047Z,22.42
2022-09-07T08:51:03.953Z,22.45
2022-09-07T08:52:03.928Z,22.48
2022-09-07T08:53:04.018Z,22.54
2022-09-07T08:54:03.907Z,22.59
2022-09-07T08:55:03.901Z,22.60
2022-09-07T08:56:03.899Z,22.63
2022-09-07T08:58:04.902Z,22.71
2022-09-07T08:59:03.875Z,22.75
2022-09-07T09:00:03.839Z,22.78
2022-09-07T09:04:21.725Z,22.86
2022-09-07T09:05:20.387Z,22.89
2022-09-07T09:06:04.855Z,22.91
2022-09-07T09:07:03.804Z,22.92
2022-09-07T09:08:03.737Z,22.96
2022-09-07T09:09:03.726Z,22.97
2022-09-07T09:10:03.697Z,23.00
2022-09-07T09:11:03.707Z,23.06
2022-09-07T09:12:03.936Z,23.07
2022-09-07T09:13:03.671Z,23.10
2022-09-07T09:14:03.648Z,23.15
2022-09-07T09:15:03.678Z,23.19
2022-09-07T09:16:03.747Z,23.25
2022-09-07T09:17:03.606Z,23.28
2022-09-07T09:18:03.602Z,23.34
2022-09-07T09:19:03.584Z,23.37
2022-09-07T09:20:03.573Z,23.40
2022-09-07T09:21:03.586Z,23.42
2022-09-07T09:22:03.524Z,23.47
2022-09-07T09:23:03.534Z,23.52
2022-09-07T09:24:03.524Z,23.53
2022-09-07T09:25:03.514Z,23.59
2022-09-07T09:26:03.524Z,23.62
2022-09-07T09:27:03.508Z,23.63
2022-09-07T09:28:03.474Z,23.64
2022-09-07T09:29:03.465Z,23.67
2022-09-07T09:30:03.452Z,23.70
2022-09-07T09:31:03.494Z,23.67
2022-09-07T09:32:07.390Z,23.71
2022-09-07T09:33:03.402Z,23.79
2022-09-07T09:34:03.393Z,23.82
2022-09-07T09:35:04.054Z,23.85
2022-09-07T09:36:03.368Z,23.89
2022-09-07T09:37:03.421Z,23.89
2022-09-07T09:38:03.347Z,23.92
2022-09-07T09:39:03.350Z,23.94
2022-09-07T09:40:03.459Z,23.96
2022-09-07T09:41:03.319Z,23.97
2022-09-07T09:42:03.320Z,23.99
2022-09-07T09:43:03.850Z,23.99
2022-09-07T09:44:03.282Z,24.04
2022-09-07T09:45:03.262Z,24.09
2022-09-07T09:46:18.954Z,24.11
2022-09-07T09:48:04.263Z,24.15
2022-09-07T09:49:03.194Z,24.15
2022-09-07T09:50:03.209Z,24.14
2022-09-07T09:53:04.140Z,24.17
2022-09-07T09:54:03.178Z,24.15
2022-09-07T09:55:33.803Z,24.17
2022-09-07T09:56:04.137Z,24.18
2022-09-07T09:57:03.087Z,24.19
2022-09-07T09:59:05.567Z,24.26
2022-09-07T10:00:08.496Z,24.26
2022-09-07T10:04:06.332Z,24.32
2022-09-07T10:05:03.998Z,24.32
2022-09-07T10:06:03.056Z,24.33
2022-09-07T10:07:02.976Z,24.34
2022-09-07T10:08:02.966Z,24.37
2022-09-07T10:09:02.963Z,24.44
2022-09-07T10:10:02.957Z,24.46
2022-09-07T10:11:02.916Z,24.51
2022-09-07T10:12:06.707Z,24.51
2022-09-07T10:13:02.886Z,24.54
2022-09-07T10:14:02.905Z,24.54
2022-09-07T10:15:02.938Z,24.55
2022-09-07T10:16:02.925Z,24.55
2022-09-07T10:17:02.842Z,24.55
2022-09-07T10:18:03.038Z,24.55
2022-09-07T10:19:02.808Z,24.56
2022-09-07T10:20:02.828Z,24.58
2022-09-07T10:21:02.780Z,24.63
2022-09-07T10:22:02.789Z,24.66
2022-09-07T10:23:02.752Z,24.66
2022-09-07T10:24:02.762Z,24.67
2022-09-07T10:25:02.742Z,24.70
2022-09-07T10:26:02.776Z,24.70
2022-09-07T10:27:02.726Z,24.71
2022-09-07T10:28:02.722Z,24.70
2022-09-07T10:29:10.139Z,24.69
2022-09-07T10:30:05.895Z,24.70
2022-09-07T10:31:02.711Z,24.75
2022-09-07T10:32:02.770Z,24.80
2022-09-07T10:33:02.641Z,24.83
2022-09-07T10:35:05.330Z,24.83
2022-09-07T10:36:02.631Z,24.85
2022-09-07T10:37:02.612Z,24.87
2022-09-07T10:38:02.615Z,24.87
2022-09-07T10:39:02.559Z,24.89
2022-09-07T10:40:02.571Z,24.86
2022-09-07T10:41:02.569Z,24.89
2022-09-07T10:42:02.585Z,24.85
2022-09-07T10:44:03.518Z,24.89
2022-09-07T10:45:02.479Z,24.90
2022-09-07T10:46:02.552Z,24.87
2022-09-07T10:47:02.608Z,24.87
2022-09-07T10:48:02.469Z,24.87
2022-09-07T10:49:02.449Z,24.87
2022-09-07T10:51:13.467Z,24.89
2022-09-07T10:52:03.667Z,24.89
2022-09-07T10:53:13.396Z,24.89
2022-09-07T10:55:03.357Z,24.93
2022-09-07T10:56:02.344Z,24.93
2022-09-07T10:57:02.337Z,24.92
2022-09-07T10:58:02.340Z,24.94
2022-09-07T10:59:03.573Z,24.93
2022-09-07T11:00:10.271Z,24.94
2022-09-07T11:01:03.295Z,24.96
2022-09-07T11:02:02.274Z,25.00
2022-09-07T11:04:03.277Z,25.05
2022-09-07T11:05:02.224Z,25.07
2022-09-07T11:06:02.215Z,25.11
2022-09-07T11:07:02.214Z,25.11
2022-09-07T11:08:02.220Z,25.14
2022-09-07T11:09:18.592Z,25.17
2022-09-07T11:10:03.204Z,25.20
2022-09-07T11:11:02.168Z,25.23
2022-09-07T11:12:02.981Z,25.24
2022-09-07T11:13:02.143Z,25.26
2022-09-07T11:14:13.052Z,25.30
2022-09-07T11:15:03.114Z,25.33
2022-09-07T11:16:02.151Z,25.37
2022-09-07T11:17:02.190Z,25.38
2022-09-07T11:18:02.123Z,25.44
2022-09-07T11:20:03.081Z,25.52
2022-09-07T11:21:02.022Z,25.62
2022-09-07T11:22:02.050Z,25.66
2022-09-07T11:23:02.066Z,25.70
2022-09-07T11:24:01.982Z,25.78
2022-09-07T11:26:03.001Z,25.75
2022-09-07T11:27:01.958Z,25.78
2022-09-07T11:28:01.944Z,25.81
2022-09-07T11:30:02.940Z,25.86
2022-09-07T11:31:02.018Z,25.89
2022-09-07T11:32:01.907Z,25.91
2022-09-07T11:33:01.900Z,25.97
2022-09-07T11:35:02.848Z,26.01
2022-09-07T11:36:01.849Z,26.04
2022-09-07T11:37:01.820Z,26.03
2022-09-07T11:38:01.860Z,26.01
2022-09-07T11:39:01.828Z,26.03
2022-09-07T11:40:01.837Z,25.99
2022-09-07T11:41:01.799Z,25.97
2022-09-07T11:42:42.229Z,25.96
2022-09-07T11:43:02.747Z,25.94
2022-09-07T11:44:01.728Z,25.91
2022-09-07T11:45:01.761Z,25.86
2022-09-07T11:46:01.757Z,25.82
2022-09-07T11:47:01.696Z,25.76
2022-09-07T11:48:01.679Z,25.71
2022-09-07T11:49:04.330Z,25.69
2022-09-07T11:50:01.666Z,25.66
2022-09-07T11:51:01.649Z,25.63
2022-09-07T11:52:08.915Z,25.64
2022-09-07T11:53:02.619Z,25.67
2022-09-07T11:54:01.605Z,25.74
2022-09-07T11:55:01.649Z,25.79
2022-09-07T11:56:02.544Z,25.85
2022-09-07T11:57:01.604Z,25.89
2022-09-07T11:58:01.544Z,25.97
2022-09-07T11:59:01.575Z,25.96
2022-09-07T12:00:01.565Z,25.99
2022-09-07T12:01:01.575Z,26.00
2022-09-07T12:02:01.574Z,25.96
2022-09-07T12:03:01.616Z,25.97
2022-09-07T12:04:01.607Z,25.94
2022-09-07T12:05:01.518Z,25.94
2022-09-07T12:06:01.511Z,25.89
2022-09-07T12:07:01.462Z,25.93
2022-09-07T12:08:01.433Z,26.00
2022-09-07T12:09:01.479Z,26.04
2022-09-07T12:10:01.523Z,26.12
2022-09-07T12:11:01.421Z,26.17
2022-09-07T12:12:01.400Z,26.23
2022-09-07T12:13:01.377Z,26.32
2022-09-07T12:14:01.376Z,26.38
2022-09-07T12:15:01.357Z,26.39
2022-09-07T12:16:01.365Z,26.39
2022-09-07T12:17:01.341Z,26.37
2022-09-07T12:18:01.301Z,26.32
2022-09-07T12:19:01.301Z,26.37
2022-09-07T12:20:01.292Z,26.41
2022-09-07T12:21:01.311Z,26.37
2022-09-07T12:22:01.251Z,26.41
2022-09-07T12:23:04.871Z,26.47
2022-09-07T12:24:01.275Z,26.54
2022-09-07T12:25:01.243Z,26.60
2022-09-07T12:26:01.238Z,26.69
2022-09-07T12:27:01.208Z,26.78
2022-09-07T12:28:01.198Z,26.89
2022-09-07T12:29:01.184Z,26.99
2022-09-07T12:30:01.170Z,27.11
2022-09-07T12:31:01.194Z,27.21
2022-09-07T12:32:53.427Z,27.31
2022-09-07T12:33:02.142Z,27.41
2022-09-07T12:34:01.128Z,27.46
2022-09-07T12:35:01.109Z,27.57
2022-09-07T12:36:01.117Z,27.68
2022-09-07T12:37:01.097Z,27.76
2022-09-07T12:38:01.065Z,27.86
2022-09-07T12:39:01.031Z,27.94
2022-09-07T12:40:01.192Z,28.02
2022-09-07T12:41:01.007Z,28.11
2022-09-07T12:43:09.736Z,28.30
2022-09-07T12:44:02.124Z,28.41
2022-09-07T12:45:00.978Z,28.48
2022-09-07T12:46:00.985Z,28.54
2022-09-07T12:47:00.934Z,28.61
2022-09-07T12:48:00.970Z,28.70
2022-09-07T12:49:00.905Z,28.75
2022-09-07T12:50:00.906Z,28.80
2022-09-07T12:51:00.914Z,28.85
2022-09-07T12:52:06.849Z,28.88
2022-09-07T12:53:01.858Z,28.88
2022-09-07T12:54:00.859Z,28.86
2022-09-07T12:55:26.087Z,28.70
2022-09-07T12:56:17.614Z,28.65
2022-09-07T12:58:01.877Z,28.64
2022-09-07T12:59:00.795Z,28.68
2022-09-07T13:00:00.817Z,28.72
2022-09-07T13:01:00.815Z,28.70
2022-09-07T13:02:00.900Z,28.68
2022-09-07T13:03:00.726Z,28.73
2022-09-07T13:04:00.889Z,28.75
2022-09-07T13:05:00.713Z,28.80
2022-09-07T13:06:00.784Z,28.83
2022-09-07T13:07:02.305Z,28.88
2022-09-07T13:08:08.397Z,28.95
2022-09-07T13:09:01.694Z,29.02
2022-09-07T13:10:00.863Z,29.06
2022-09-07T13:11:00.644Z,29.10
2022-09-07T13:12:00.659Z,29.10
2022-09-07T13:13:00.613Z,29.17
2022-09-07T13:14:03.912Z,29.21
2022-09-07T13:15:00.632Z,29.28
2022-09-07T13:16:00.601Z,29.38
2022-09-07T13:17:16.415Z,29.47
2022-09-07T13:18:01.563Z,29.48
2022-09-07T13:19:01.910Z,29.52
2022-09-07T13:20:01.347Z,29.51
2022-09-07T13:21:00.560Z,29.55
2022-09-07T13:22:00.544Z,29.60
2022-09-07T13:23:00.547Z,29.58
2022-09-07T13:24:44.005Z,29.54
2022-09-07T13:25:01.481Z,29.51
2022-09-07T13:26:00.526Z,29.51
2022-09-07T13:27:00.432Z,29.54
2022-09-07T13:28:00.444Z,29.47
2022-09-07T13:29:00.430Z,29.51
2022-09-07T13:30:00.450Z,29.55
2022-09-07T13:31:00.459Z,29.65
2022-09-07T13:32:00.450Z,29.66
2022-09-07T13:33:08.288Z,29.66
2022-09-07T13:34:01.377Z,29.69
2022-09-07T13:35:00.379Z,29.66
2022-09-07T13:36:00.367Z,29.70